createdAt,value
2023-02-27T00:00:21.406Z,-0.15
2023-02-27T00:05:22.909Z,-0.21
2023-02-27T00:10:24.190Z,-0.18
2023-02-27T00:15:25.521Z,0.01
2023-02-27T00:20:30.452Z,-0.05
2023-02-27T00:25:31.712Z,0.06
2023-02-27T00:30:33.148Z,-0.01
2023-02-27T00:35:34.477Z,-0.16
2023-02-27T00:40:36.102Z,0.00
2023-02-27T00:45:37.681Z,-0.06
2023-02-27T00:50:38.981Z,-0.24
2023-02-27T00:55:40.204Z,-0.21
2023-02-27T01:00:41.508Z,-0.16
2023-02-27T01:05:42.873Z,-0.30
2023-02-27T01:10:44.138Z,-0.50
2023-02-27T01:15:45.441Z,-0.50
2023-02-27T01:20:46.669Z,-0.37
2023-02-27T01:25:47.928Z,-0.22
2023-02-27T01:30:49.228Z,-0.19
2023-02-27T01:35:50.530Z,-0.11
2023-02-27T01:40:51.820Z,-0.22
2023-02-27T01:45:53.265Z,0.15
2023-02-27T01:50:54.624Z,0.20
2023-02-27T01:55:55.905Z,0.37
2023-02-27T02:00:57.183Z,0.38
2023-02-27T02:05:58.466Z,0.34
2023-02-27T02:10:59.742Z,0.43
2023-02-27T02:16:00.967Z,0.41
2023-02-27T02:21:03.005Z,0.19
2023-02-27T02:26:05.042Z,0.08
2023-02-27T02:31:06.314Z,0.13
2023-02-27T02:36:07.621Z,-0.06
2023-02-27T02:41:08.892Z,-0.06
2023-02-27T02:46:10.436Z,-0.05
2023-02-27T02:51:11.739Z,-0.13
2023-02-27T02:56:12.950Z,-0.14
2023-02-27T03:01:14.224Z,0.02
2023-02-27T03:06:15.551Z,0.09
2023-02-27T03:11:16.787Z,-0.13
2023-02-27T03:16:18.044Z,-0.06
2023-02-27T03:21:19.291Z,-0.02
2023-02-27T03:26:22.388Z,-0.10
2023-02-27T03:31:23.869Z,-0.13
2023-02-27T03:36:27.506Z,-0.17
2023-02-27T03:41:29.053Z,-0.19
2023-02-27T03:46:30.546Z,-0.24
2023-02-27T03:51:31.891Z,-0.14
2023-02-27T03:56:33.131Z,-0.19
2023-02-27T04:01:34.373Z,-0.27
2023-02-27T04:06:54.419Z,-0.03
2023-02-27T04:11:55.692Z,0.06
2023-02-27T04:16:56.888Z,0.20
2023-02-27T04:21:58.195Z,0.20
2023-02-27T04:27:01.165Z,0.29
2023-02-27T04:32:02.574Z,0.09
2023-02-27T04:37:03.913Z,0.27
2023-02-27T04:42:05.170Z,0.10
2023-02-27T04:47:06.444Z,0.17
2023-02-27T04:52:07.738Z,0.32
2023-02-27T04:57:08.981Z,0.12
2023-02-27T05:02:10.415Z,-0.01
2023-02-27T05:07:11.724Z,0.05
2023-02-27T05:12:12.963Z,-0.01
2023-02-27T05:17:14.298Z,-0.23
2023-02-27T05:22:15.669Z,-0.41
2023-02-27T05:27:19.580Z,-0.58
2023-02-27T05:32:24.772Z,-0.60
2023-02-27T05:37:26.104Z,-0.52
2023-02-27T05:42:28.622Z,-0.59
2023-02-27T05:47:29.839Z,-0.59
2023-02-27T05:52:31.046Z,-0.61
2023-02-27T05:57:33.373Z,-0.63
2023-02-27T06:02:35.147Z,-0.42
2023-02-27T06:07:36.489Z,-0.37
2023-02-27T06:12:37.750Z,-0.45
2023-02-27T06:17:39.152Z,-0.23
2023-02-27T06:22:40.358Z,-0.50
2023-02-27T06:27:41.621Z,-0.60
2023-02-27T06:32:42.920Z,-0.52
2023-02-27T06:37:44.168Z,-0.64
2023-02-27T06:42:45.439Z,-0.73
2023-02-27T06:47:46.704Z,-0.62
2023-02-27T06:52:47.957Z,-0.66
2023-02-27T06:57:49.236Z,-0.74
2023-02-27T07:02:50.462Z,-0.84
2023-02-27T07:07:51.694Z,-0.85
2023-02-27T07:28:10.484Z,0.75
2023-02-27T07:33:11.729Z,0.06
2023-02-27T07:38:13.026Z,-0.12
2023-02-27T07:43:14.305Z,-0.11
2023-02-27T07:48:15.535Z,-0.30
2023-02-27T07:53:16.769Z,-0.50
2023-02-27T07:58:18.020Z,-0.36
2023-02-27T08:03:19.311Z,-0.20
2023-02-27T08:08:21.955Z,0.08
2023-02-27T08:13:42.270Z,-0.03
2023-02-27T08:18:44.499Z,0.05
2023-02-27T08:23:45.738Z,0.28
2023-02-27T08:28:47.055Z,0.30
2023-02-27T08:33:49.634Z,0.47
2023-02-27T08:38:54.386Z,0.81
2023-02-27T08:43:55.730Z,1.21
2023-02-27T08:48:57.338Z,1.23
2023-02-27T08:54:01.652Z,1.47
2023-02-27T08:59:03.038Z,1.58
2023-02-27T09:04:04.304Z,1.94
2023-02-27T09:09:05.595Z,1.81
2023-02-27T09:14:06.856Z,2.01
2023-02-27T09:19:08.319Z,2.18
2023-02-27T09:24:19.204Z,1.93
2023-02-27T09:29:23.818Z,1.87
2023-02-27T09:34:26.012Z,2.01
2023-02-27T09:39:27.280Z,2.01
2023-02-27T09:44:44.806Z,1.95
2023-02-27T09:49:47.657Z,1.82
2023-02-27T09:54:48.966Z,1.70
2023-02-27T09:59:51.952Z,1.63
2023-02-27T10:04:54.414Z,1.69
2023-02-27T10:09:55.704Z,1.73
2023-02-27T10:14:56.953Z,1.74
2023-02-27T10:19:58.215Z,1.85
2023-02-27T10:24:59.792Z,1.95
2023-02-27T10:30:01.091Z,2.04
2023-02-27T10:35:02.327Z,1.96
2023-02-27T10:40:06.659Z,2.12
2023-02-27T10:45:07.932Z,2.35
2023-02-27T10:50:09.253Z,2.27
2023-02-27T10:55:10.540Z,2.45
2023-02-27T11:00:12.031Z,2.63
2023-02-27T11:05:13.309Z,2.61
2023-02-27T11:10:15.069Z,2.60
2023-02-27T11:15:16.433Z,2.46
2023-02-27T11:20:17.770Z,2.29
2023-02-27T11:25:19.149Z,2.12
2023-02-27T11:30:22.565Z,2.22
2023-02-27T11:35:23.951Z,1.93
2023-02-27T11:40:25.205Z,2.07
2023-02-27T11:46:10.214Z,2.23
2023-02-27T11:50:51.987Z,2.38
2023-02-27T11:55:53.237Z,2.57
2023-02-27T12:00:54.676Z,2.48
2023-02-27T12:05:55.986Z,2.78
2023-02-27T12:11:07.784Z,2.76
2023-02-27T12:16:14.096Z,2.68
2023-02-27T12:21:15.372Z,3.77
2023-02-27T12:26:17.088Z,3.51
2023-02-27T12:31:18.368Z,3.11
2023-02-27T12:36:19.682Z,2.76
2023-02-27T12:41:23.348Z,2.85
2023-02-27T12:46:24.690Z,2.97
2023-02-27T12:51:26.332Z,3.74
2023-02-27T12:56:27.889Z,4.18
2023-02-27T13:01:29.680Z,4.14
2023-02-27T13:06:31.329Z,4.78
2023-02-27T13:11:32.679Z,6.08
2023-02-27T13:16:34.145Z,6.92
2023-02-27T13:21:35.454Z,6.88
2023-02-27T13:26:36.810Z,5.56
2023-02-27T13:31:41.789Z,5.19
2023-02-27T13:36:43.028Z,5.33
2023-02-27T13:41:44.398Z,5.14
2023-02-27T13:46:45.639Z,4.95
2023-02-27T13:51:46.920Z,4.44
2023-02-27T13:56:48.176Z,4.13
2023-02-27T14:01:49.773Z,3.69
2023-02-27T14:06:51.351Z,3.44
2023-02-27T14:11:52.728Z,3.22
2023-02-27T14:16:54.047Z,3.49
2023-02-27T14:21:55.938Z,6.71
2023-02-27T14:26:57.244Z,8.02
2023-02-27T14:31:59.721Z,7.48
2023-02-27T14:37:01.588Z,6.38
2023-02-27T14:42:03.094Z,6.57
2023-02-27T14:47:04.375Z,6.80
2023-02-27T14:52:10.844Z,6.83
2023-02-27T14:57:13.978Z,5.73
2023-02-27T15:02:32.960Z,6.14
2023-02-27T15:07:34.299Z,5.94
2023-02-27T15:12:35.530Z,4.37
2023-02-27T15:17:36.742Z,4.15
2023-02-27T15:22:39.932Z,3.46
2023-02-27T15:27:41.521Z,3.26
2023-02-27T15:32:43.137Z,3.24
2023-02-27T15:37:44.442Z,3.66
2023-02-27T15:42:46.080Z,3.59
2023-02-27T15:47:47.483Z,3.25
2023-02-27T15:52:48.790Z,2.83
2023-02-27T15:58:02.288Z,2.99
2023-02-27T16:03:04.541Z,2.91
2023-02-27T16:08:06.801Z,2.76
2023-02-27T16:13:08.253Z,2.79
2023-02-27T16:18:09.524Z,2.79
2023-02-27T16:23:10.838Z,2.70
2023-02-27T16:28:12.254Z,2.42
2023-02-27T16:33:13.587Z,2.18
2023-02-27T16:38:15.014Z,2.23
2023-02-27T16:43:16.272Z,2.20
2023-02-27T16:48:17.546Z,2.05
2023-02-27T16:53:18.883Z,2.07
2023-02-27T16:58:20.142Z,2.16
2023-02-27T17:03:21.930Z,1.97
2023-02-27T17:08:23.168Z,1.86
2023-02-27T17:13:24.491Z,1.60
2023-02-27T17:18:26.362Z,1.65
2023-02-27T17:23:27.683Z,1.48
2023-02-27T17:28:29.078Z,1.61
2023-02-27T17:33:30.371Z,1.61
2023-02-27T17:38:31.779Z,1.58
2023-02-27T17:43:33.062Z,1.57
2023-02-27T17:48:35.496Z,1.71
2023-02-27T17:53:37.215Z,2.00
2023-02-27T17:58:38.538Z,1.92
2023-02-27T18:03:39.789Z,1.99
2023-02-27T18:08:41.049Z,1.59
2023-02-27T18:13:42.369Z,1.73
2023-02-27T18:18:43.741Z,1.77
2023-02-27T18:23:45.167Z,1.59
2023-02-27T18:28:46.566Z,1.49
2023-02-27T18:33:47.868Z,1.57
2023-02-27T18:38:49.134Z,1.50
2023-02-27T18:43:50.404Z,1.45
2023-02-27T18:48:51.719Z,1.25
2023-02-27T18:53:53.002Z,1.25
2023-02-27T18:58:54.576Z,1.41
2023-02-27T19:04:00.412Z,1.32
2023-02-27T19:09:03.548Z,1.13
2023-02-27T19:14:04.906Z,1.03
2023-02-27T19:19:06.244Z,1.19
2023-02-27T19:24:07.463Z,1.11
2023-02-27T19:29:08.787Z,1.08
2023-02-27T19:34:10.110Z,1.02
2023-02-27T19:39:13.499Z,1.13
2023-02-27T19:44:14.889Z,1.02
2023-02-27T19:49:16.177Z,0.93
2023-02-27T19:54:17.745Z,1.02
2023-02-27T19:59:19.122Z,1.02
2023-02-27T20:04:20.561Z,1.14
2023-02-27T20:09:23.198Z,1.27
2023-02-27T20:14:24.472Z,1.26
2023-02-27T20:19:26.038Z,1.32
2023-02-27T20:24:27.357Z,1.03
2023-02-27T20:29:28.574Z,1.27
2023-02-27T20:34:29.963Z,1.26
2023-02-27T20:39:31.247Z,1.26
2023-02-27T20:44:32.569Z,1.14
2023-02-27T20:49:33.932Z,1.09
2023-02-27T20:54:35.173Z,1.02
2023-02-27T20:59:36.485Z,1.27
2023-02-27T21:04:45.775Z,1.43
2023-02-27T21:09:47.051Z,1.61
2023-02-27T21:14:49.316Z,1.53
2023-02-27T21:19:50.560Z,1.26
2023-02-27T21:24:53.662Z,1.13
2023-02-27T21:29:54.923Z,0.91
2023-02-27T21:34:56.128Z,0.96
2023-02-27T21:39:57.494Z,0.84
2023-02-27T21:44:58.793Z,0.57
2023-02-27T21:50:00.043Z,0.57
2023-02-27T21:55:07.312Z,0.76
2023-02-27T22:00:11.048Z,0.69
2023-02-27T22:05:12.333Z,0.79
2023-02-27T22:10:13.687Z,0.93
2023-02-27T22:15:15.062Z,0.90
2023-02-27T22:20:16.788Z,1.06
2023-02-27T22:25:18.041Z,1.18
2023-02-27T22:30:19.302Z,0.93
2023-02-27T22:35:20.573Z,1.02
2023-02-27T22:40:21.820Z,0.73
2023-02-27T22:45:23.669Z,0.81
2023-02-27T22:50:24.872Z,0.87
2023-02-27T22:55:26.480Z,0.78
2023-02-27T23:00:27.679Z,0.75
2023-02-27T23:05:28.940Z,0.70
2023-02-27T23:10:30.151Z,0.81
2023-02-27T23:15:32.165Z,0.73
2023-02-27T23:20:33.447Z,0.63
2023-02-27T23:25:34.763Z,0.42
2023-02-27T23:30:36.020Z,0.25
2023-02-27T23:35:37.324Z,0.40
2023-02-27T23:40:38.604Z,0.28
2023-02-27T23:45:39.893Z,0.40
2023-02-27T23:50:41.210Z,0.23
2023-02-27T23:55:43.682Z,0.11
